Black River, Jamaica
Current Conditions -  °F | °C
As of 9:00 PM on Saturday 25 Oct 2014 (Local Time) from MKJS Reporting Station
Broken Clouds Broken Clouds  
Wind Chill: 81°   Ceiling: 2200
Heat Index: 86°   Visibility: 6mi
Dew Point: 75°   Wind: 2mph
Humidity: 84%   Direction: NA
Pressure: 29.83"   Gusts: NA
Location:  18.03°N, 77.86°W
Report Text: MKJS 260200Z VRB02KT 9999 BKN022 27/24 Q1010
Loading
Personal Weather Stations






























Interactive Weather Map
Tropical Storm Tracking
New forecast layout! Learn more

10-Day Weather Forecast

Advertisements
Track Severe Weather on mobile